Time,TemperatureF,DewpointF,PressureIn,WindDirection,WindDirectionDegrees,WindSpeedMPH,WindSpeedGustMPH,Humidity,HourlyPrecipIn,Conditions,Clouds,dailyrainin,SoftwareType,DateUTC
2013-10-30 00:03:00,55.0,54.0,30.21,NNE,15,1.0,3.0,97,0.02,,,0.00,weatherlink.com 1.10,2013-10-30 04:03:00,
2013-10-30 00:18:00,55.2,54.0,30.21,West,267,0.0,2.0,97,0.01,,,0.00,weatherlink.com 1.10,2013-10-30 04:18:00,
2013-10-30 00:33:00,55.4,55.0,30.21,SSE,156,0.0,1.0,97,0.01,,,0.00,weatherlink.com 1.10,2013-10-30 04:33:00,
2013-10-30 00:48:00,55.5,55.0,30.21,ENE,65,0.0,0.0,97,0.03,,,0.02,weatherlink.com 1.10,2013-10-30 04:48:00,
2013-10-30 01:03:00,55.6,55.0,30.20,ENE,65,0.0,1.0,97,0.12,,,0.12,weatherlink.com 1.10,2013-10-30 05:03:00,
2013-10-30 01:18:00,55.5,55.0,30.19,SSE,160,0.0,1.0,97,0.15,,,0.15,weatherlink.com 1.10,2013-10-30 05:18:00,
2013-10-30 01:33:00,55.6,55.0,30.18,SSE,159,0.0,1.0,97,0.16,,,0.16,weatherlink.com 1.10,2013-10-30 05:33:00,
2013-10-30 01:48:00,55.6,55.0,30.18,SSE,150,0.0,1.0,97,0.15,,,0.17,weatherlink.com 1.10,2013-10-30 05:48:00,
2013-10-30 02:03:00,55.6,55.0,30.17,SSE,154,0.0,2.0,97,0.11,,,0.23,weatherlink.com 1.10,2013-10-30 06:03:00,
2013-10-30 02:18:00,55.7,55.0,30.17,South,173,0.0,3.0,97,0.09,,,0.24,weatherlink.com 1.10,2013-10-30 06:18:00,
2013-10-30 02:33:00,55.8,55.0,30.17,East,84,0.0,1.0,97,0.08,,,0.24,weatherlink.com 1.10,2013-10-30 06:33:00,
2013-10-30 02:48:00,55.8,55.0,30.17,East,83,0.0,1.0,97,0.11,,,0.28,weatherlink.com 1.10,2013-10-30 06:48:00,
2013-10-30 03:03:00,55.8,55.0,30.17,NE,38,0.0,1.0,97,0.10,,,0.33,weatherlink.com 1.10,2013-10-30 07:03:00,
2013-10-30 03:18:00,55.8,55.0,30.18,NE,39,0.0,1.0,97,0.09,,,0.33,weatherlink.com 1.10,2013-10-30 07:18:00,
2013-10-30 03:33:00,55.8,55.0,30.17,NE,36,0.0,1.0,97,0.15,,,0.39,weatherlink.com 1.10,2013-10-30 07:33:00,
2013-10-30 03:48:00,55.9,55.0,30.16,SSE,165,0.0,2.0,98,0.14,,,0.42,weatherlink.com 1.10,2013-10-30 07:48:00,
2013-10-30 04:03:00,56.1,56.0,30.16,SSE,165,0.0,0.0,98,0.09,,,0.42,weatherlink.com 1.10,2013-10-30 08:03:00,
2013-10-30 04:18:00,56.1,56.0,30.16,SW,221,1.0,1.0,98,0.16,,,0.49,weatherlink.com 1.10,2013-10-30 08:18:00,
2013-10-30 04:33:00,56.1,56.0,30.16,SW,221,0.0,1.0,98,0.11,,,0.50,weatherlink.com 1.10,2013-10-30 08:33:00,
2013-10-30 04:48:00,56.0,56.0,30.15,SW,232,0.0,0.0,98,0.09,,,0.51,weatherlink.com 1.10,2013-10-30 08:48:00,
2013-10-30 05:03:00,56.1,56.0,30.15,SW,235,0.0,1.0,98,0.09,,,0.51,weatherlink.com 1.10,2013-10-30 09:03:00,
2013-10-30 05:18:00,56.2,56.0,30.18,West,276,0.0,1.0,98,0.02,,,0.51,weatherlink.com 1.10,2013-10-30 09:18:00,
2013-10-30 05:33:00,56.3,56.0,30.18,ESE,113,4.0,5.0,98,0.03,,,0.53,weatherlink.com 1.10,2013-10-30 09:33:00,
2013-10-30 05:48:00,56.6,56.0,30.18,North,352,0.0,2.0,98,0.18,,,0.69,weatherlink.com 1.10,2013-10-30 09:48:00,
2013-10-30 06:03:00,57.1,57.0,30.18,SSW,203,1.0,2.0,98,0.55,,,1.06,weatherlink.com 1.10,2013-10-30 10:03:00,
2013-10-30 06:18:00,58.8,58.0,30.16,SSE,158,2.0,4.0,98,0.72,,,1.23,weatherlink.com 1.10,2013-10-30 10:18:00,
2013-10-30 06:33:00,60.5,60.0,30.18,SW,217,2.0,8.0,98,0.77,,,1.31,weatherlink.com 1.10,2013-10-30 10:33:00,
2013-10-30 06:48:00,60.5,60.0,30.18,North,6,0.0,6.0,98,0.62,,,1.34,weatherlink.com 1.10,2013-10-30 10:48:00,
2013-10-30 07:03:00,60.1,60.0,30.17,SW,236,0.0,7.0,98,0.32,,,1.41,weatherlink.com 1.10,2013-10-30 11:03:00,
2013-10-30 07:18:00,60.0,59.0,30.18,NNE,12,0.0,1.0,97,0.17,,,1.41,weatherlink.com 1.10,2013-10-30 11:18:00,
2013-10-30 07:33:00,59.8,59.0,30.18,NE,41,0.0,1.0,97,0.11,,,1.42,weatherlink.com 1.10,2013-10-30 11:33:00,
2013-10-30 07:48:00,59.6,59.0,30.18,SSE,155,0.0,1.0,97,0.07,,,1.42,weatherlink.com 1.10,2013-10-30 11:48:00,
2013-10-30 08:03:00,59.5,59.0,30.18,SSW,194,1.0,1.0,97,0.05,,,1.46,weatherlink.com 1.10,2013-10-30 12:03:00,
2013-10-30 08:19:00,59.6,59.0,30.18,SW,219,1.0,1.0,98,0.05,,,1.46,weatherlink.com 1.10,2013-10-30 12:19:00,
2013-10-30 08:33:00,59.4,59.0,30.18,SW,232,0.0,1.0,97,0.04,,,1.46,weatherlink.com 1.10,2013-10-30 12:33:00,
2013-10-30 08:49:00,59.5,59.0,30.19,SW,232,0.0,1.0,98,0.04,,,1.46,weatherlink.com 1.10,2013-10-30 12:49:00,
2013-10-30 09:04:00,59.5,59.0,30.19,SW,232,0.0,0.0,98,0.00,,,1.46,weatherlink.com 1.10,2013-10-30 13:04:00,
2013-10-30 09:19:00,59.6,59.0,30.20,SW,232,0.0,0.0,98,0.00,,,1.46,weatherlink.com 1.10,2013-10-30 13:19:00,
2013-10-30 09:34:00,59.9,59.0,30.20,SW,232,0.0,0.0,98,0.00,,,1.46,weatherlink.com 1.10,2013-10-30 13:34:00,
2013-10-30 09:49:00,60.3,60.0,30.20,SW,232,0.0,0.0,98,0.00,,,1.46,weatherlink.com 1.10,2013-10-30 13:49:00,
2013-10-30 10:04:00,61.0,61.0,30.20,SW,232,0.0,1.0,98,0.00,,,1.46,weatherlink.com 1.10,2013-10-30 14:04:00,
2013-10-30 10:19:00,61.1,61.0,30.20,WNW,297,0.0,1.0,98,0.00,,,1.46,weatherlink.com 1.10,2013-10-30 14:19:00,
2013-10-30 10:34:00,61.3,61.0,30.20,South,177,0.0,1.0,98,0.00,,,1.46,weatherlink.com 1.10,2013-10-30 14:34:00,
2013-10-30 10:49:00,61.8,61.0,30.20,SSE,161,0.0,1.0,98,0.00,,,1.46,weatherlink.com 1.10,2013-10-30 14:49:00,
2013-10-30 11:04:00,62.3,62.0,30.20,SW,214,0.0,1.0,98,0.00,,,1.46,weatherlink.com 1.10,2013-10-30 15:04:00,
2013-10-30 11:19:00,62.9,62.0,30.19,SSE,164,0.0,2.0,98,0.00,,,1.46,weatherlink.com 1.10,2013-10-30 15:19:00,
2013-10-30 11:34:00,63.4,63.0,30.19,South,187,0.0,2.0,97,0.00,,,1.46,weatherlink.com 1.10,2013-10-30 15:34:00,
2013-10-30 11:49:00,64.5,64.0,30.19,South,189,2.0,3.0,97,0.00,,,1.46,weatherlink.com 1.10,2013-10-30 15:49:00,
2013-10-30 12:04:00,65.1,64.0,30.18,WSW,256,2.0,4.0,95,0.00,,,1.46,weatherlink.com 1.10,2013-10-30 16:04:00,
2013-10-30 12:19:00,65.8,64.0,30.18,SE,142,1.0,4.0,94,0.00,,,1.46,weatherlink.com 1.10,2013-10-30 16:19:00,
2013-10-30 12:34:00,66.9,65.0,30.18,WSW,256,0.0,3.0,92,0.00,,,1.46,weatherlink.com 1.10,2013-10-30 16:34:00,
2013-10-30 12:49:00,67.3,64.0,30.18,SW,226,1.0,8.0,90,0.00,,,1.46,weatherlink.com 1.10,2013-10-30 16:49:00,
2013-10-30 13:04:00,67.5,65.0,30.17,SSW,196,3.0,6.0,90,0.00,,,1.46,weatherlink.com 1.10,2013-10-30 17:04:00,
2013-10-30 13:19:00,68.8,65.0,30.16,SSE,162,1.0,5.0,88,0.00,,,1.46,weatherlink.com 1.10,2013-10-30 17:19:00,
2013-10-30 13:34:00,69.0,65.0,30.14,WSW,252,2.0,7.0,87,0.00,,,1.46,weatherlink.com 1.10,2013-10-30 17:34:00,
2013-10-30 13:49:00,68.8,65.0,30.14,WSW,238,2.0,9.0,86,0.00,,,1.46,weatherlink.com 1.10,2013-10-30 17:49:00,
2013-10-30 14:04:00,68.7,64.0,30.12,West,281,2.0,6.0,86,0.00,,,1.46,weatherlink.com 1.10,2013-10-30 18:04:00,
2013-10-30 14:19:00,69.3,65.0,30.12,East,79,0.0,7.0,85,0.00,,,1.46,weatherlink.com 1.10,2013-10-30 18:19:00,
2013-10-30 14:34:00,69.9,65.0,30.11,West,269,3.0,6.0,83,0.00,,,1.46,weatherlink.com 1.10,2013-10-30 18:34:00,
2013-10-30 14:49:00,69.3,64.0,30.12,SW,222,1.0,4.0,84,0.00,,,1.46,weatherlink.com 1.10,2013-10-30 18:49:00,
2013-10-30 15:19:00,67.8,64.0,30.10,West,269,1.0,6.0,87,0.00,,,1.46,weatherlink.com 1.10,2013-10-30 19:19:00,
2013-10-30 15:35:00,68.3,64.0,30.10,SW,236,1.0,5.0,87,0.00,,,1.46,weatherlink.com 1.10,2013-10-30 19:35:00,
2013-10-30 15:49:00,68.5,65.0,30.10,West,262,1.0,2.0,87,0.00,,,1.46,weatherlink.com 1.10,2013-10-30 19:49:00,
2013-10-30 16:19:00,68.6,65.0,30.09,South,172,0.0,2.0,88,0.00,,,1.46,weatherlink.com 1.10,2013-10-30 20:19:00,
2013-10-30 16:34:00,68.7,65.0,30.09,SSE,159,0.0,2.0,88,0.00,,,1.46,weatherlink.com 1.10,2013-10-30 20:34:00,
2013-10-30 16:49:00,68.8,65.0,30.09,SSE,158,3.0,3.0,88,0.00,,,1.46,weatherlink.com 1.10,2013-10-30 20:49:00,
2013-10-30 17:04:00,69.5,66.0,30.09,East,86,2.0,2.0,87,0.00,,,1.46,weatherlink.com 1.10,2013-10-30 21:04:00,
2013-10-30 17:19:00,69.6,65.0,30.09,ESE,115,1.0,5.0,86,0.00,,,1.46,weatherlink.com 1.10,2013-10-30 21:19:00,
2013-10-30 17:34:00,69.8,66.0,30.09,SSE,165,0.0,3.0,86,0.00,,,1.46,weatherlink.com 1.10,2013-10-30 21:34:00,
2013-10-30 17:49:00,69.8,66.0,30.08,SE,138,1.0,3.0,86,0.00,,,1.46,weatherlink.com 1.10,2013-10-30 21:49:00,
2013-10-30 18:05:00,69.7,66.0,30.08,SSE,156,0.0,2.0,87,0.00,,,1.46,weatherlink.com 1.10,2013-10-30 22:05:00,
2013-10-30 18:20:00,69.0,65.0,30.07,SSE,148,0.0,1.0,88,0.00,,,1.46,weatherlink.com 1.10,2013-10-30 22:20:00,
2013-10-30 18:35:00,68.0,65.0,30.07,SSE,148,0.0,0.0,90,0.00,,,1.46,weatherlink.com 1.10,2013-10-30 22:35:00,
2013-10-30 18:50:00,67.2,65.0,30.07,SSE,148,0.0,0.0,91,0.00,,,1.46,weatherlink.com 1.10,2013-10-30 22:50:00,
2013-10-30 19:05:00,66.1,64.0,30.07,SSE,148,0.0,1.0,92,0.00,,,1.46,weatherlink.com 1.10,2013-10-30 23:05:00,
2013-10-30 19:20:00,65.4,64.0,30.08,SSE,148,0.0,0.0,94,0.00,,,1.46,weatherlink.com 1.10,2013-10-30 23:20:00,
2013-10-30 19:35:00,64.7,63.0,30.07,SSE,148,0.0,0.0,94,0.00,,,1.46,weatherlink.com 1.10,2013-10-30 23:35:00,
2013-10-30 19:50:00,64.4,63.0,30.08,SSE,148,0.0,0.0,95,0.00,,,1.46,weatherlink.com 1.10,2013-10-30 23:50:00,
2013-10-30 20:20:00,64.0,63.0,30.08,SSE,148,0.0,0.0,96,0.00,,,1.46,weatherlink.com 1.10,2013-10-31 00:20:00,
2013-10-30 20:35:00,64.4,63.0,30.08,SSW,208,0.0,1.0,96,0.00,,,1.46,weatherlink.com 1.10,2013-10-31 00:35:00,
2013-10-30 20:50:00,64.3,63.0,30.07,SSW,208,0.0,1.0,96,0.00,,,1.46,weatherlink.com 1.10,2013-10-31 00:50:00,
2013-10-30 21:05:00,64.2,63.0,30.07,SSW,208,0.0,1.0,96,0.00,,,1.46,weatherlink.com 1.10,2013-10-31 01:05:00,
2013-10-30 21:20:00,64.1,63.0,30.07,South,183,0.0,1.0,96,0.00,,,1.46,weatherlink.com 1.10,2013-10-31 01:20:00,
2013-10-30 21:35:00,63.9,63.0,30.06,WSW,242,0.0,2.0,96,0.00,,,1.46,weatherlink.com 1.10,2013-10-31 01:35:00,
2013-10-30 21:50:00,64.3,63.0,30.06,SSE,160,0.0,4.0,94,0.00,,,1.46,weatherlink.com 1.10,2013-10-31 01:50:00,
2013-10-30 22:05:00,65.4,62.0,30.06,South,188,4.0,6.0,88,0.00,,,1.46,weatherlink.com 1.10,2013-10-31 02:05:00,
2013-10-30 22:20:00,66.7,61.0,30.05,ESE,113,1.0,4.0,82,0.00,,,1.46,weatherlink.com 1.10,2013-10-31 02:20:00,
2013-10-30 22:35:00,67.4,61.0,30.05,SSW,204,0.0,6.0,79,0.00,,,1.46,weatherlink.com 1.10,2013-10-31 02:35:00,
2013-10-30 22:50:00,67.4,60.0,30.06,WSW,246,1.0,4.0,78,0.00,,,1.46,weatherlink.com 1.10,2013-10-31 02:50:00,
2013-10-30 23:05:00,67.4,60.0,30.06,West,264,0.0,3.0,77,0.00,,,1.46,weatherlink.com 1.10,2013-10-31 03:05:00,
2013-10-30 23:20:00,67.0,60.0,30.06,WNW,284,0.0,4.0,78,0.00,,,1.46,weatherlink.com 1.10,2013-10-31 03:20:00,
2013-10-30 23:35:00,66.7,60.0,30.06,SE,143,0.0,3.0,78,0.00,,,1.46,weatherlink.com 1.10,2013-10-31 03:35:00,
2013-10-30 23:50:00,66.4,59.0,30.05,SSW,210,0.0,3.0,78,0.00,,,1.46,weatherlink.com 1.10,2013-10-31 03:50:00,